sensor_id;sensor_type;location;lat;lon;timestamp;pressure;altitude;pressure_sealevel;temperature;humidity
77106;BME280;66057;54.718;18.426;2023-04-01T00:02:18;99696.94;;;3.04;100.00
77106;BME280;66057;54.718;18.426;2023-04-01T00:04:44;99698.69;;;3.05;100.00
77106;BME280;66057;54.718;18.426;2023-04-01T00:07:09;99696.94;;;3.04;100.00
77106;BME280;66057;54.718;18.426;2023-04-01T00:09:36;99702.03;;;3.04;100.00
77106;BME280;66057;54.718;18.426;2023-04-01T00:12:03;99695.28;;;3.04;100.00
77106;BME280;66057;54.718;18.426;2023-04-01T00:14:29;99690.38;;;3.07;100.00
77106;BME280;66057;54.718;18.426;2023-04-01T00:16:54;99692.03;;;3.07;100.00
77106;BME280;66057;54.718;18.426;2023-04-01T00:19:21;99691.34;;;3.10;100.00
77106;BME280;66057;54.718;18.426;2023-04-01T00:21:46;99701.81;;;3.16;100.00
77106;BME280;66057;54.718;18.426;2023-04-01T00:24:13;99700.84;;;3.14;100.00
77106;BME280;66057;54.718;18.426;2023-04-01T00:26:39;99709.69;;;3.20;100.00
77106;BME280;66057;54.718;18.426;2023-04-01T00:29:08;99707.03;;;3.19;100.00
77106;BME280;66057;54.718;18.426;2023-04-01T00:31:33;99698.56;;;3.18;100.00
77106;BME280;66057;54.718;18.426;2023-04-01T00:33:59;99700.00;;;3.29;100.00
77106;BME280;66057;54.718;18.426;2023-04-01T00:36:27;99703.41;;;3.30;100.00
77106;BME280;66057;54.718;18.426;2023-04-01T00:38:57;99699.91;;;3.28;100.00
77106;BME280;66057;54.718;18.426;2023-04-01T00:41:25;99694.91;;;3.29;100.00
77106;BME280;66057;54.718;18.426;2023-04-01T00:44:22;99705.22;;;3.32;100.00
77106;BME280;66057;54.718;18.426;2023-04-01T00:46:48;99693.31;;;3.31;100.00
77106;BME280;66057;54.718;18.426;2023-04-01T00:49:18;99696.03;;;3.34;100.00
77106;BME280;66057;54.718;18.426;2023-04-01T00:51:50;99697.78;;;3.35;100.00
77106;BME280;66057;54.718;18.426;2023-04-01T00:54:19;99690.31;;;3.38;100.00
77106;BME280;66057;54.718;18.426;2023-04-01T00:56:58;99692.94;;;3.40;100.00
77106;BME280;66057;54.718;18.426;2023-04-01T00:59:34;99698.03;;;3.40;100.00
77106;BME280;66057;54.718;18.426;2023-04-01T01:02:05;99699.38;;;3.49;100.00
77106;BME280;66057;54.718;18.426;2023-04-01T01:04:34;99697.84;;;3.53;100.00
77106;BME280;66057;54.718;18.426;2023-04-01T01:14:52;99689.53;;;3.39;100.00
77106;BME280;66057;54.718;18.426;2023-04-01T01:26:42;99689.97;;;3.32;100.00
77106;BME280;66057;54.718;18.426;2023-04-01T01:31:50;99697.78;;;3.35;100.00
77106;BME280;66057;54.718;18.426;2023-04-01T01:34:23;99703.56;;;3.33;100.00
77106;BME280;66057;54.718;18.426;2023-04-01T01:36:58;99711.03;;;3.30;100.00
77106;BME280;66057;54.718;18.426;2023-04-01T01:39:28;99704.06;;;3.26;100.00
77106;BME280;66057;54.718;18.426;2023-04-01T01:41:57;99713.47;;;3.28;100.00
77106;BME280;66057;54.718;18.426;2023-04-01T01:44:26;99708.16;;;3.24;100.00
77106;BME280;66057;54.718;18.426;2023-04-01T01:46:55;99713.88;;;3.20;100.00
77106;BME280;66057;54.718;18.426;2023-04-01T01:49:21;99710.38;;;3.18;100.00
77106;BME280;66057;54.718;18.426;2023-04-01T01:51:48;99706.16;;;3.18;100.00
77106;BME280;66057;54.718;18.426;2023-04-01T01:54:15;99710.78;;;3.25;100.00
77106;BME280;66057;54.718;18.426;2023-04-01T01:56:44;99707.19;;;3.22;100.00
77106;BME280;66057;54.718;18.426;2023-04-01T01:59:11;99703.00;;;3.22;100.00
77106;BME280;66057;54.718;18.426;2023-04-01T02:01:42;99715.22;;;3.29;100.00
77106;BME280;66057;54.718;18.426;2023-04-01T02:04:10;99703.66;;;3.34;100.00
77106;BME280;66057;54.718;18.426;2023-04-01T02:06:38;99712.06;;;3.33;100.00
77106;BME280;66057;54.718;18.426;2023-04-01T02:09:08;99706.19;;;3.34;100.00
77106;BME280;66057;54.718;18.426;2023-04-01T02:11:41;99710.94;;;3.44;100.00
77106;BME280;66057;54.718;18.426;2023-04-01T02:14:43;99712.06;;;3.49;100.00
77106;BME280;66057;54.718;18.426;2023-04-01T02:17:21;99707.78;;;3.48;100.00
77106;BME280;66057;54.718;18.426;2023-04-01T02:19:51;99701.16;;;3.52;100.00
77106;BME280;66057;54.718;18.426;2023-04-01T02:22:22;99704.69;;;3.54;100.00
77106;BME280;66057;54.718;18.426;2023-04-01T02:24:54;99701.09;;;3.50;100.00
77106;BME280;66057;54.718;18.426;2023-04-01T02:27:23;99705.56;;;3.55;100.00
77106;BME280;66057;54.718;18.426;2023-04-01T02:29:50;99700.47;;;3.55;100.00
77106;BME280;66057;54.718;18.426;2023-04-01T02:32:16;99710.94;;;3.61;100.00
77106;BME280;66057;54.718;18.426;2023-04-01T02:34:43;99704.28;;;3.63;100.00
77106;BME280;66057;54.718;18.426;2023-04-01T02:37:11;99707.59;;;3.62;100.00
77106;BME280;66057;54.718;18.426;2023-04-01T02:39:36;99706.06;;;3.65;100.00
77106;BME280;66057;54.718;18.426;2023-04-01T02:42:02;99713.22;;;3.72;100.00
77106;BME280;66057;54.718;18.426;2023-04-01T02:44:28;99717.75;;;3.78;100.00
77106;BME280;66057;54.718;18.426;2023-04-01T02:46:53;99722.97;;;3.81;100.00
77106;BME280;66057;54.718;18.426;2023-04-01T02:49:19;99724.72;;;3.82;100.00
77106;BME280;66057;54.718;18.426;2023-04-01T02:51:46;99725.53;;;3.81;100.00
77106;BME280;66057;54.718;18.426;2023-04-01T02:54:11;99724.72;;;3.82;100.00
77106;BME280;66057;54.718;18.426;2023-04-01T02:56:37;99723.28;;;3.87;100.00
77106;BME280;66057;54.718;18.426;2023-04-01T02:59:02;99718.22;;;3.87;100.00
77106;BME280;66057;54.718;18.426;2023-04-01T03:01:28;99719.31;;;3.92;100.00
77106;BME280;66057;54.718;18.426;2023-04-01T03:03:54;99726.84;;;3.90;100.00
77106;BME280;66057;54.718;18.426;2023-04-01T03:06:19;99723.63;;;3.93;100.00
77106;BME280;66057;54.718;18.426;2023-04-01T03:08:45;99722.09;;;3.97;100.00
77106;BME280;66057;54.718;18.426;2023-04-01T03:11:12;99729.84;;;4.00;100.00
77106;BME280;66057;54.718;18.426;2023-04-01T03:13:38;99734.72;;;3.95;100.00
77106;BME280;66057;54.718;18.426;2023-04-01T03:16:04;99736.31;;;3.93;100.00
77106;BME280;66057;54.718;18.426;2023-04-01T03:18:29;99735.50;;;3.94;100.00
77106;BME280;66057;54.718;18.426;2023-04-01T03:20:56;99732.09;;;3.93;100.00
77106;BME280;66057;54.718;18.426;2023-04-01T03:23:22;99738.00;;;3.92;100.00
77106;BME280;66057;54.718;18.426;2023-04-01T03:25:50;99732.16;;;3.95;100.00
77106;BME280;66057;54.718;18.426;2023-04-01T03:28:16;99742.03;;;3.89;100.00
77106;BME280;66057;54.718;18.426;2023-04-01T03:30:42;99747.28;;;3.92;100.00
77106;BME280;66057;54.718;18.426;2023-04-01T03:33:07;99739.25;;;3.84;100.00
77106;BME280;66057;54.718;18.426;2023-04-01T03:35:33;99740.91;;;3.84;100.00
77106;BME280;66057;54.718;18.426;2023-04-01T03:38:01;99746.97;;;3.86;100.00
77106;BME280;66057;54.718;18.426;2023-04-01T03:40:26;99746.72;;;3.81;100.00
77106;BME280;66057;54.718;18.426;2023-04-01T03:42:52;99756.34;;;3.87;100.00
77106;BME280;66057;54.718;18.426;2023-04-01T03:45:18;99757.03;;;3.84;100.00
77106;BME280;66057;54.718;18.426;2023-04-01T03:47:43;99761.97;;;3.81;100.00
77106;BME280;66057;54.718;18.426;2023-04-01T03:50:09;99761.84;;;3.78;100.00
77106;BME280;66057;54.718;18.426;2023-04-01T03:52:35;99764.75;;;3.86;100.00
77106;BME280;66057;54.718;18.426;2023-04-01T03:55:01;99764.28;;;3.93;100.00
77106;BME280;66057;54.718;18.426;2023-04-01T03:57:27;99765.16;;;3.77;100.00
77106;BME280;66057;54.718;18.426;2023-04-01T03:59:53;99773.72;;;3.79;100.00
77106;BME280;66057;54.718;18.426;2023-04-01T04:02:19;99769.47;;;3.78;100.00
77106;BME280;66057;54.718;18.426;2023-04-01T04:04:45;99782.41;;;3.83;100.00
77106;BME280;66057;54.718;18.426;2023-04-01T04:07:12;99770.41;;;3.80;100.00
77106;BME280;66057;54.718;18.426;2023-04-01T04:09:37;99780.25;;;3.90;100.00
77106;BME280;66057;54.718;18.426;2023-04-01T04:12:03;99783.84;;;3.78;100.00
77106;BME280;66057;54.718;18.426;2023-04-01T04:14:31;99791.50;;;3.79;100.00
77106;BME280;66057;54.718;18.426;2023-04-01T04:16:57;99792.16;;;3.75;100.00
77106;BME280;66057;54.718;18.426;2023-04-01T04:19:23;99797.78;;;3.70;100.00
77106;BME280;66057;54.718;18.426;2023-04-01T04:21:49;99796.06;;;3.69;100.00
77106;BME280;66057;54.718;18.426;2023-04-01T04:24:15;99789.31;;;3.69;100.00
77106;BME280;66057;54.718;18.426;2023-04-01T04:26:40;99797.00;;;3.71;100.00
77106;BME280;66057;54.718;18.426;2023-04-01T04:29:06;99791.91;;;3.71;100.00
77106;BME280;66057;54.718;18.426;2023-04-01T04:31:32;99799.72;;;3.74;100.00
77106;BME280;66057;54.718;18.426;2023-04-01T04:33:59;99796.94;;;3.69;100.00
77106;BME280;66057;54.718;18.426;2023-04-01T04:36:26;99797.88;;;3.71;100.00
77106;BME280;66057;54.718;18.426;2023-04-01T04:38:51;99798.03;;;3.74;100.00
77106;BME280;66057;54.718;18.426;2023-04-01T04:41:18;99802.81;;;3.68;100.00
77106;BME280;66057;54.718;18.426;2023-04-01T04:43:53;99805.34;;;3.68;100.00
77106;BME280;66057;54.718;18.426;2023-04-01T04:46:20;99808.59;;;3.66;100.00
77106;BME280;66057;54.718;18.426;2023-04-01T04:48:46;99810.19;;;3.64;100.00
77106;BME280;66057;54.718;18.426;2023-04-01T04:51:13;99815.44;;;3.67;100.00
77106;BME280;66057;54.718;18.426;2023-04-01T04:53:40;99805.75;;;3.60;100.00
77106;BME280;66057;54.718;18.426;2023-04-01T04:56:06;99815.28;;;3.64;100.00
77106;BME280;66057;54.718;18.426;2023-04-01T04:58:32;99809.31;;;3.63;100.00
77106;BME280;66057;54.718;18.426;2023-04-01T05:00:57;99809.31;;;3.63;100.00
77106;BME280;66057;54.718;18.426;2023-04-01T05:03:23;99816.94;;;3.63;100.00
77106;BME280;66057;54.718;18.426;2023-04-01T05:05:50;99823.84;;;3.66;100.00
77106;BME280;66057;54.718;18.426;2023-04-01T05:08:16;99813.28;;;3.58;100.00
77106;BME280;66057;54.718;18.426;2023-04-01T05:10:42;99825.09;;;3.58;100.00
77106;BME280;66057;54.718;18.426;2023-04-01T05:13:08;99828.84;;;3.64;100.00
77106;BME280;66057;54.718;18.426;2023-04-01T05:15:33;99833.84;;;3.63;100.00
77106;BME280;66057;54.718;18.426;2023-04-01T05:17:59;99826.06;;;3.60;100.00
77106;BME280;66057;54.718;18.426;2023-04-01T05:20:24;99828.78;;;3.63;100.00
77106;BME280;66057;54.718;18.426;2023-04-01T05:22:55;99826.91;;;3.60;100.00
77106;BME280;66057;54.718;18.426;2023-04-01T05:25:21;99825.31;;;3.46;100.00
77106;BME280;66057;54.718;18.426;2023-04-01T05:27:46;99835.13;;;3.55;100.00
77106;BME280;66057;54.718;18.426;2023-04-01T05:30:12;99839.31;;;3.54;100.00
77106;BME280;66057;54.718;18.426;2023-04-01T05:32:38;99841.28;;;3.43;100.00
77106;BME280;66057;54.718;18.426;2023-04-01T05:35:04;99836.09;;;3.42;100.00
77106;BME280;66057;54.718;18.426;2023-04-01T05:37:30;99846.47;;;3.45;100.00
77106;BME280;66057;54.718;18.426;2023-04-01T05:39:55;99847.25;;;3.44;100.00
77106;BME280;66057;54.718;18.426;2023-04-01T05:42:21;99840.16;;;3.38;100.00
77106;BME280;66057;54.718;18.426;2023-04-01T05:44:46;99850.91;;;3.49;100.00
77106;BME280;66057;54.718;18.426;2023-04-01T05:47:12;99847.78;;;3.38;100.00
77106;BME280;66057;54.718;18.426;2023-04-01T05:49:38;99845.88;;;3.34;100.00
77106;BME280;66057;54.718;18.426;2023-04-01T05:52:03;99852.06;;;3.39;100.00
77106;BME280;66057;54.718;18.426;2023-04-01T05:54:29;99847.53;;;3.34;100.00
77106;BME280;66057;54.718;18.426;2023-04-01T05:56:58;99854.28;;;3.33;100.00
77106;BME280;66057;54.718;18.426;2023-04-01T05:59:23;99857.69;;;3.34;100.00
77106;BME280;66057;54.718;18.426;2023-04-01T06:01:50;99861.00;;;3.33;100.00
77106;BME280;66057;54.718;18.426;2023-04-01T06:04:17;99861.25;;;3.21;100.00
77106;BME280;66057;54.718;18.426;2023-04-01T06:06:43;99865.50;;;3.22;100.00
77106;BME280;66057;54.718;18.426;2023-04-01T06:09:15;99862.34;;;3.26;100.00
77106;BME280;66057;54.718;18.426;2023-04-01T06:17:30;99869.69;;;3.22;100.00
77106;BME280;66057;54.718;18.426;2023-04-01T06:25:53;99876.72;;;3.26;100.00
77106;BME280;66057;54.718;18.426;2023-04-01T06:28:39;99884.75;;;3.33;100.00
77106;BME280;66057;54.718;18.426;2023-04-01T06:43:25;99894.91;;;3.33;100.00
77106;BME280;66057;54.718;18.426;2023-04-01T06:46:16;99893.00;;;3.29;100.00
77106;BME280;66057;54.718;18.426;2023-04-01T06:49:05;99901.25;;;3.25;100.00
77106;BME280;66057;54.718;18.426;2023-04-01T06:52:55;99901.94;;;3.23;100.00
77106;BME280;66057;54.718;18.426;2023-04-01T06:54:49;99904.47;;;3.23;100.00
77106;BME280;66057;54.718;18.426;2023-04-01T06:57:31;99910.31;;;3.22;100.00
77106;BME280;66057;54.718;18.426;2023-04-01T07:00:00;99911.16;;;3.21;100.00
77106;BME280;66057;54.718;18.426;2023-04-01T07:02:39;99913.94;;;3.25;100.00
77106;BME280;66057;54.718;18.426;2023-04-01T07:05:07;99911.41;;;3.25;100.00
77106;BME280;66057;54.718;18.426;2023-04-01T07:07:42;99923.56;;;3.31;100.00
77106;BME280;66057;54.718;18.426;2023-04-01T07:10:14;99926.25;;;3.34;100.00
77106;BME280;66057;54.718;18.426;2023-04-01T07:12:46;99928.66;;;3.31;100.00
77106;BME280;66057;54.718;18.426;2023-04-01T07:15:25;99931.63;;;3.24;100.00
77106;BME280;66057;54.718;18.426;2023-04-01T07:18:02;99936.84;;;3.27;100.00
77106;BME280;66057;54.718;18.426;2023-04-01T07:20:30;99936.59;;;3.22;100.00
77106;BME280;66057;54.718;18.426;2023-04-01T07:22:59;99940.47;;;3.16;100.00
77106;BME280;66057;54.718;18.426;2023-04-01T07:25:39;99944.94;;;3.20;100.00
77106;BME280;66057;54.718;18.426;2023-04-01T07:28:12;99946.13;;;3.26;100.00
77106;BME280;66057;54.718;18.426;2023-04-01T07:33:33;99957.44;;;3.31;100.00
77106;BME280;66057;54.718;18.426;2023-04-01T07:36:07;99965.59;;;3.26;100.00
77106;BME280;66057;54.718;18.426;2023-04-01T07:41:30;99962.81;;;3.21;100.00
77106;BME280;66057;54.718;18.426;2023-04-01T07:44:10;99966.38;;;3.25;100.00
77106;BME280;66057;54.718;18.426;2023-04-01T07:46:55;99963.59;;;3.20;100.00
77106;BME280;66057;54.718;18.426;2023-04-01T07:49:41;99974.00;;;3.25;100.00
77106;BME280;66057;54.718;18.426;2023-04-01T07:55:03;99986.88;;;3.28;100.00
77106;BME280;66057;54.718;18.426;2023-04-01T07:57:43;99988.25;;;3.23;100.00
77106;BME280;66057;54.718;18.426;2023-04-01T08:00:24;99994.22;;;3.23;100.00
77106;BME280;66057;54.718;18.426;2023-04-01T08:17:03;100003.13;;;3.17;100.00
77106;BME280;66057;54.718;18.426;2023-04-01T08:22:16;100015.16;;;3.19;100.00
77106;BME280;66057;54.718;18.426;2023-04-01T08:24:46;100018.91;;;3.11;100.00
77106;BME280;66057;54.718;18.426;2023-04-01T08:27:26;100029.41;;;3.17;100.00
77106;BME280;66057;54.718;18.426;2023-04-01T08:30:04;100031.44;;;3.23;100.00
77106;BME280;66057;54.718;18.426;2023-04-01T08:32:37;100026.28;;;3.21;100.00
77106;BME280;66057;54.718;18.426;2023-04-01T08:35:28;100029.16;;;3.27;100.00
77106;BME280;66057;54.718;18.426;2023-04-01T08:38:01;100041.16;;;3.30;100.00
77106;BME280;66057;54.718;18.426;2023-04-01T08:45:54;100040.78;;;3.09;100.00
77106;BME280;66057;54.718;18.426;2023-04-01T08:48:51;100037.47;;;3.10;100.00
77106;BME280;66057;54.718;18.426;2023-04-01T08:51:36;100046.25;;;3.15;100.00
77106;BME280;66057;54.718;18.426;2023-04-01T08:59:39;100060.59;;;3.15;100.00
77106;BME280;66057;54.718;18.426;2023-04-01T09:19:03;100087.13;;;3.20;100.00
77106;BME280;66057;54.718;18.426;2023-04-01T09:22:09;100090.97;;;3.13;100.00
77106;BME280;66057;54.718;18.426;2023-04-01T09:27:44;100097.81;;;3.14;100.00
77106;BME280;66057;54.718;18.426;2023-04-01T09:38:58;100119.19;;;2.90;100.00
77106;BME280;66057;54.718;18.426;2023-04-01T09:41:32;100124.97;;;2.87;100.00
77106;BME280;66057;54.718;18.426;2023-04-01T09:44:18;100133.81;;;2.94;100.00
77106;BME280;66057;54.718;18.426;2023-04-01T09:47:06;100127.94;;;2.95;100.00
77106;BME280;66057;54.718;18.426;2023-04-01T09:49:49;100146.16;;;3.02;100.00
77106;BME280;66057;54.718;18.426;2023-04-01T09:52:30;100139.16;;;2.98;100.00
77106;BME280;66057;54.718;18.426;2023-04-01T09:56:08;100151.06;;;2.99;100.00
77106;BME280;66057;54.718;18.426;2023-04-01T09:58:32;100145.13;;;2.99;100.00
77106;BME280;66057;54.718;18.426;2023-04-01T10:01:29;100142.47;;;2.97;100.00
77106;BME280;66057;54.718;18.426;2023-04-01T10:04:23;100142.47;;;2.97;100.00
77106;BME280;66057;54.718;18.426;2023-04-01T10:23:31;100167.34;;;3.03;100.00
77106;BME280;66057;54.718;18.426;2023-04-01T10:34:26;100182.25;;;2.97;100.00
77106;BME280;66057;54.718;18.426;2023-04-01T10:37:00;100182.41;;;3.00;100.00
77106;BME280;66057;54.718;18.426;2023-04-01T10:40:01;100179.00;;;2.99;100.00
77106;BME280;66057;54.718;18.426;2023-04-01T10:48:22;100189.44;;;3.04;100.00
77106;BME280;66057;54.718;18.426;2023-04-01T10:51:14;100187.59;;;3.01;100.00
77106;BME280;66057;54.718;18.426;2023-04-01T11:07:36;100212.09;;;3.01;100.00
77106;BME280;66057;54.718;18.426;2023-04-01T11:21:46;100215.44;;;2.87;100.00
77106;BME280;66057;54.718;18.426;2023-04-01T11:33:14;100232.78;;;2.94;100.00
77106;BME280;66057;54.718;18.426;2023-04-01T11:38:20;100242.63;;;3.02;100.00
77106;BME280;66057;54.718;18.426;2023-04-01T11:44:19;100238.66;;;3.06;100.00
77106;BME280;66057;54.718;18.426;2023-04-01T11:49:44;100250.56;;;2.94;100.00
77106;BME280;66057;54.718;18.426;2023-04-01T11:52:32;100243.66;;;2.91;100.00
77106;BME280;66057;54.718;18.426;2023-04-01T12:06:49;100268.72;;;3.00;100.00
77106;BME280;66057;54.718;18.426;2023-04-01T12:12:35;100269.78;;;3.03;100.00
77106;BME280;66057;54.718;18.426;2023-04-01T12:15:32;100275.34;;;3.11;100.00
77106;BME280;66057;54.718;18.426;2023-04-01T12:21:02;100275.16;;;3.08;100.00
77106;BME280;66057;54.718;18.426;2023-04-01T12:24:05;100280.34;;;3.10;100.00
77106;BME280;66057;54.718;18.426;2023-04-01T12:27:12;100281.38;;;3.13;100.00
77106;BME280;66057;54.718;18.426;2023-04-01T12:35:16;100296.53;;;2.98;100.00
77106;BME280;66057;54.718;18.426;2023-04-01T12:37:52;100292.34;;;2.99;100.00
77106;BME280;66057;54.718;18.426;2023-04-01T12:46:01;100299.38;;;3.03;100.00
77106;BME280;66057;54.718;18.426;2023-04-01T12:51:29;100287.47;;;3.02;100.00
77106;BME280;66057;54.718;18.426;2023-04-01T12:57:25;100312.00;;;3.01;100.00
77106;BME280;66057;54.718;18.426;2023-04-01T13:08:52;100316.38;;;3.04;100.00
77106;BME280;66057;54.718;18.426;2023-04-01T13:17:07;100331.09;;;3.10;100.00
77106;BME280;66057;54.718;18.426;2023-04-01T13:19:49;100326.69;;;3.07;100.00
77106;BME280;66057;54.718;18.426;2023-04-01T13:22:49;100335.00;;;3.18;100.00
77106;BME280;66057;54.718;18.426;2023-04-01T13:25:32;100336.97;;;3.08;100.00
77106;BME280;66057;54.718;18.426;2023-04-01T13:28:15;100343.91;;;3.11;100.00
77106;BME280;66057;54.718;18.426;2023-04-01T13:30:47;100338.63;;;3.08;100.00
77106;BME280;66057;54.718;18.426;2023-04-01T13:38:59;100359.34;;;3.01;100.00
77106;BME280;66057;54.718;18.426;2023-04-01T13:44:46;100373.81;;;3.02;100.00
77106;BME280;66057;54.718;18.426;2023-04-01T13:47:23;100376.22;;;3.00;100.00
77106;BME280;66057;54.718;18.426;2023-04-01T13:53:22;100379.84;;;3.04;100.00
77106;BME280;66057;54.718;18.426;2023-04-01T13:55:46;100376.81;;;3.10;99.12
77106;BME280;66057;54.718;18.426;2023-04-01T14:05:50;100398.13;;;3.12;99.43
77106;BME280;66057;54.718;18.426;2023-04-01T14:22:38;100398.78;;;2.96;98.94
77106;BME280;66057;54.718;18.426;2023-04-01T14:27:54;100400.53;;;2.97;98.81
77106;BME280;66057;54.718;18.426;2023-04-01T14:30:31;100417.63;;;2.99;98.49
77106;BME280;66057;54.718;18.426;2023-04-01T14:33:25;100424.16;;;2.96;99.44
77106;BME280;66057;54.718;18.426;2023-04-01T14:39:12;100422.09;;;3.03;97.67
77106;BME280;66057;54.718;18.426;2023-04-01T14:41:56;100426.00;;;2.98;98.41
77106;BME280;66057;54.718;18.426;2023-04-01T14:44:45;100439.47;;;2.97;98.95
77106;BME280;66057;54.718;18.426;2023-04-01T14:47:27;100440.06;;;2.93;97.63
77106;BME280;66057;54.718;18.426;2023-04-01T14:50:21;100441.53;;;3.03;98.49
77106;BME280;66057;54.718;18.426;2023-04-01T14:52:55;100439.19;;;2.93;98.01
77106;BME280;66057;54.718;18.426;2023-04-01T14:55:36;100444.25;;;2.93;98.31
77106;BME280;66057;54.718;18.426;2023-04-01T14:58:15;100445.25;;;2.95;97.84
77106;BME280;66057;54.718;18.426;2023-04-01T15:04:04;100458.63;;;2.92;96.97
77106;BME280;66057;54.718;18.426;2023-04-01T15:09:43;100459.69;;;2.96;98.03
77106;BME280;66057;54.718;18.426;2023-04-01T15:12:31;100469.16;;;2.98;97.11
77106;BME280;66057;54.718;18.426;2023-04-01T15:31:32;100501.09;;;2.95;97.31
77106;BME280;66057;54.718;18.426;2023-04-01T15:34:17;100492.72;;;2.96;96.77
77106;BME280;66057;54.718;18.426;2023-04-01T15:37:08;100507.63;;;2.91;97.18
77106;BME280;66057;54.718;18.426;2023-04-01T15:42:47;100510.25;;;2.93;97.44
77106;BME280;66057;54.718;18.426;2023-04-01T15:47:58;100514.38;;;2.91;96.98
77106;BME280;66057;54.718;18.426;2023-04-01T15:53:20;100528.53;;;2.87;97.37
77106;BME280;66057;54.718;18.426;2023-04-01T15:55:50;100532.78;;;2.88;96.83
77106;BME280;66057;54.718;18.426;2023-04-01T16:01:22;100544.06;;;2.92;96.52
77106;BME280;66057;54.718;18.426;2023-04-01T16:11:47;100557.53;;;2.91;96.43
77106;BME280;66057;54.718;18.426;2023-04-01T16:17:29;100566.78;;;2.90;95.49
77106;BME280;66057;54.718;18.426;2023-04-01T16:20:14;100568.56;;;2.91;95.63
77106;BME280;66057;54.718;18.426;2023-04-01T16:25:51;100581.44;;;2.94;96.14
77106;BME280;66057;54.718;18.426;2023-04-01T16:28:47;100583.56;;;2.88;95.83
77106;BME280;66057;54.718;18.426;2023-04-01T16:34:43;100596.78;;;2.96;95.59
77106;BME280;66057;54.718;18.426;2023-04-01T16:37:17;100596.78;;;2.96;95.72
77106;BME280;66057;54.718;18.426;2023-04-01T16:40:01;100600.28;;;2.98;95.46
77106;BME280;66057;54.718;18.426;2023-04-01T16:43:05;100614.13;;;2.90;95.18
77106;BME280;66057;54.718;18.426;2023-04-01T16:51:21;100622.81;;;2.93;96.78
77106;BME280;66057;54.718;18.426;2023-04-01T16:54:01;100625.22;;;3.03;96.40
77106;BME280;66057;54.718;18.426;2023-04-01T16:56:38;100626.38;;;2.95;95.37
77106;BME280;66057;54.718;18.426;2023-04-01T16:59:17;100631.63;;;2.98;95.49
77106;BME280;66057;54.718;18.426;2023-04-01T17:01:52;100637.59;;;2.99;96.37
77106;BME280;66057;54.718;18.426;2023-04-01T17:04:30;100636.63;;;2.97;95.99
77106;BME280;66057;54.718;18.426;2023-04-01T17:15:41;100655.94;;;2.95;95.49
77106;BME280;66057;54.718;18.426;2023-04-01T17:18:26;100659.38;;;2.95;95.33
77106;BME280;66057;54.718;18.426;2023-04-01T17:21:20;100668.84;;;2.98;95.75
77106;BME280;66057;54.718;18.426;2023-04-01T17:23:51;100669.63;;;2.97;95.90
77106;BME280;66057;54.718;18.426;2023-04-01T17:35:02;100690.28;;;3.01;95.01
77106;BME280;66057;54.718;18.426;2023-04-01T17:54:59;100719.59;;;3.10;94.95
77106;BME280;66057;54.718;18.426;2023-04-01T18:00:50;100714.84;;;3.14;94.92
77106;BME280;66057;54.718;18.426;2023-04-01T18:06:14;100732.81;;;3.17;94.48
77106;BME280;66057;54.718;18.426;2023-04-01T18:15:07;100751.06;;;3.12;94.95
77106;BME280;66057;54.718;18.426;2023-04-01T18:17:24;100756.22;;;3.13;94.52
77106;BME280;66057;54.718;18.426;2023-04-01T18:20:26;100759.22;;;3.19;94.60
77106;BME280;66057;54.718;18.426;2023-04-01T18:23:14;100762.50;;;3.18;94.80
77106;BME280;66057;54.718;18.426;2023-04-01T18:25:53;100767.84;;;3.21;94.58
77106;BME280;66057;54.718;18.426;2023-04-01T18:28:32;100764.28;;;3.19;93.70
77106;BME280;66057;54.718;18.426;2023-04-01T18:31:08;100765.06;;;3.18;94.68
77106;BME280;66057;54.718;18.426;2023-04-01T18:33:49;100768.47;;;3.19;93.94
77106;BME280;66057;54.718;18.426;2023-04-01T18:36:35;100760.22;;;3.21;94.00
77106;BME280;66057;54.718;18.426;2023-04-01T18:39:08;100774.00;;;3.25;94.45
77106;BME280;66057;54.718;18.426;2023-04-01T18:47:38;100777.81;;;3.31;94.06
77106;BME280;66057;54.718;18.426;2023-04-01T18:57:50;100787.00;;;3.29;94.47
77106;BME280;66057;54.718;18.426;2023-04-01T19:00:21;100789.75;;;3.32;93.95
77106;BME280;66057;54.718;18.426;2023-04-01T19:05:33;100797.06;;;3.28;94.51
77106;BME280;66057;54.718;18.426;2023-04-01T19:08:18;100799.28;;;3.35;94.06
77106;BME280;66057;54.718;18.426;2023-04-01T19:10:51;100798.25;;;3.33;94.30
77106;BME280;66057;54.718;18.426;2023-04-01T19:15:52;100802.56;;;3.34;93.42
77106;BME280;66057;54.718;18.426;2023-04-01T19:24:12;100819.28;;;3.30;93.22
77106;BME280;66057;54.718;18.426;2023-04-01T19:26:44;100820.03;;;3.29;93.62
77106;BME280;66057;54.718;18.426;2023-04-01T19:29:43;100828.75;;;3.33;93.59
77106;BME280;66057;54.718;18.426;2023-04-01T19:35:38;100836.50;;;3.34;92.69
77106;BME280;66057;54.718;18.426;2023-04-01T19:38:19;100836.50;;;3.34;93.35
77106;BME280;66057;54.718;18.426;2023-04-01T19:44:34;100839.78;;;3.33;93.51
77106;BME280;66057;54.718;18.426;2023-04-01T19:52:49;100854.84;;;3.30;93.67
77106;BME280;66057;54.718;18.426;2023-04-01T19:55:37;100861.97;;;3.36;94.23
77106;BME280;66057;54.718;18.426;2023-04-01T19:58:14;100868.81;;;3.37;93.89
77106;BME280;66057;54.718;18.426;2023-04-01T20:00:51;100864.09;;;3.30;92.79
77106;BME280;66057;54.718;18.426;2023-04-01T20:03:40;100872.69;;;3.32;92.82
77106;BME280;66057;54.718;18.426;2023-04-01T20:06:19;100873.72;;;3.34;93.88
77106;BME280;66057;54.718;18.426;2023-04-01T20:11:38;100879.34;;;3.30;94.37
77106;BME280;66057;54.718;18.426;2023-04-01T20:22:04;100896.00;;;3.26;93.35
77106;BME280;66057;54.718;18.426;2023-04-01T20:24:36;100895.78;;;3.23;93.46
77106;BME280;66057;54.718;18.426;2023-04-01T20:30:04;100905.41;;;3.27;93.95